Time;durP1;ratioP1;P1;durP2;ratioP2;P2;SDS_P1;SDS_P2;PMS_P1;PMS_P2;Temp;Humidity;BMP_temperature;BMP_pressure;BME280_temperature;BME280_humidity;BME280_pressure;Samples;Min_cycle;Max_cycle;Signal;HPM_P1;HPM_P2
2022/01/06 00:01:45;;;;;;;1.63;1.30;;;3.90;98.20;;;;;;5059632;28;20487;-75
2022/01/06 00:04:12;;;;;;;1.63;1.30;;;3.90;98.20;;;;;;5066008;28;20979;-75
2022/01/06 00:06:41;;;;;;;1.70;1.50;;;3.90;98.20;;;;;;5067608;28;20498;-76
2022/01/06 00:09:10;;;;;;;1.67;1.30;;;3.90;98.20;;;;;;5082923;28;20937;-75
2022/01/06 00:11:38;;;;;;;1.60;1.40;;;3.90;98.20;;;;;;5066124;28;20905;-76
2022/01/06 00:14:10;;;;;;;1.60;1.40;;;3.90;98.20;;;;;;5083132;28;20457;-75
2022/01/06 00:16:44;;;;;;;1.70;1.40;;;3.90;98.20;;;;;;5070828;28;20516;-76
2022/01/06 00:24:39;;;;;;;1.63;1.40;;;3.90;98.20;;;;;;5075881;28;20515;-75
2022/01/06 00:27:07;;;;;;;1.70;1.40;;;3.90;98.20;;;;;;5061593;28;20994;-75
2022/01/06 00:29:33;;;;;;;1.63;1.40;;;3.90;98.20;;;;;;5071007;28;20973;-75
2022/01/06 00:32:01;;;;;;;1.60;1.40;;;3.90;98.20;;;;;;5076842;28;20480;-75
2022/01/06 00:34:27;;;;;;;1.63;1.30;;;3.90;98.20;;;;;;5079952;28;21039;-75
2022/01/06 00:36:55;;;;;;;1.70;1.40;;;3.90;98.20;;;;;;5075603;28;20854;-75
2022/01/06 00:39:26;;;;;;;1.67;1.40;;;3.90;98.20;;;;;;5082674;28;20519;-75
2022/01/06 00:41:55;;;;;;;1.70;1.50;;;3.90;98.20;;;;;;5058237;28;20569;-75
2022/01/06 00:44:24;;;;;;;1.67;1.30;;;3.90;98.20;;;;;;5071721;28;20527;-75
2022/01/06 00:46:51;;;;;;;1.70;1.40;;;3.90;98.20;;;;;;5061243;28;20485;-76
2022/01/06 00:49:20;;;;;;;1.70;1.50;;;3.90;98.20;;;;;;5067877;28;20467;-75
2022/01/06 00:51:47;;;;;;;1.70;1.50;;;4.00;98.20;;;;;;5072023;28;20475;-75
2022/01/06 00:54:14;;;;;;;1.70;1.40;;;4.00;98.20;;;;;;5083400;28;20489;-77
2022/01/06 00:56:41;;;;;;;1.67;1.40;;;4.00;98.20;;;;;;5070281;28;20475;-76
2022/01/06 00:59:08;;;;;;;1.67;1.40;;;4.00;98.20;;;;;;5084660;28;20476;-75
2022/01/06 01:01:36;;;;;;;1.70;1.43;;;4.10;98.20;;;;;;5068855;28;20479;-76
2022/01/06 01:04:04;;;;;;;1.60;1.30;;;4.10;98.20;;;;;;5086125;28;20470;-76
2022/01/06 01:06:30;;;;;;;1.70;1.40;;;4.10;98.20;;;;;;5067048;28;20480;-75
2022/01/06 01:08:57;;;;;;;1.67;1.30;;;4.10;98.20;;;;;;5087809;28;20965;-75
2022/01/06 01:11:24;;;;;;;1.70;1.50;;;4.10;98.20;;;;;;5063059;28;20840;-76
2022/01/06 01:13:56;;;;;;;1.63;1.40;;;4.10;98.20;;;;;;5087977;28;20468;-75
2022/01/06 01:16:28;;;;;;;1.63;1.40;;;4.00;98.20;;;;;;5064744;28;20497;-75
2022/01/06 01:18:57;;;;;;;1.70;1.40;;;4.00;98.20;;;;;;5085172;28;20461;-75
2022/01/06 01:21:27;;;;;;;1.70;1.40;;;4.00;98.20;;;;;;5065381;28;20529;-76
2022/01/06 01:23:54;;;;;;;1.70;1.40;;;4.00;98.20;;;;;;5088775;28;20796;-77
2022/01/06 01:26:21;;;;;;;1.60;1.40;;;4.00;98.20;;;;;;5064255;28;21014;-76
2022/01/06 01:28:50;;;;;;;1.70;1.40;;;3.90;98.20;;;;;;5090186;28;20599;-75
2022/01/06 01:31:25;;;;;;;1.70;1.40;;;3.90;98.20;;;;;;5061703;28;20504;-75
2022/01/06 01:33:56;;;;;;;1.70;1.50;;;3.90;98.20;;;;;;5086737;28;20484;-76
2022/01/06 01:36:24;;;;;;;1.67;1.40;;;3.90;98.20;;;;;;5063973;28;20566;-75
2022/01/06 01:38:51;;;;;;;1.67;1.40;;;3.80;98.20;;;;;;5086510;28;20552;-75
2022/01/06 01:41:19;;;;;;;2.03;1.83;;;3.80;98.20;;;;;;5063900;28;20908;-76
2022/01/06 01:43:47;;;;;;;2.03;1.83;;;3.80;98.20;;;;;;5088204;28;20473;-76
2022/01/06 01:46:18;;;;;;;1.70;1.50;;;3.80;98.20;;;;;;5061174;28;21009;-75
2022/01/06 01:48:49;;;;;;;1.70;1.50;;;3.70;98.20;;;;;;5091626;28;20465;-75
2022/01/06 01:51:16;;;;;;;1.70;1.50;;;3.70;98.20;;;;;;5062233;28;20569;-75
2022/01/06 01:53:45;;;;;;;1.67;1.40;;;3.70;98.20;;;;;;5091600;28;20465;-75
2022/01/06 01:56:14;;;;;;;1.70;1.50;;;3.70;98.20;;;;;;5061142;28;21468;-75
2022/01/06 01:58:41;;;;;;;1.70;1.40;;;3.60;98.20;;;;;;5090771;28;20465;-75
2022/01/06 02:01:08;;;;;;;1.63;1.40;;;3.60;98.20;;;;;;5060486;28;20461;-75
2022/01/06 02:03:35;;;;;;;1.70;1.40;;;3.60;98.20;;;;;;5093866;28;21150;-75
2022/01/06 02:06:02;;;;;;;1.70;1.50;;;3.60;98.20;;;;;;5058471;28;20481;-75
2022/01/06 02:08:31;;;;;;;1.87;1.70;;;3.60;98.20;;;;;;5094478;28;20980;-75
2022/01/06 02:11:00;;;;;;;1.70;1.60;;;3.60;98.20;;;;;;5058441;28;20907;-75
2022/01/06 02:13:29;;;;;;;1.63;1.40;;;3.60;98.20;;;;;;5094917;28;20466;-75
2022/01/06 02:15:58;;;;;;;1.70;1.50;;;3.60;98.20;;;;;;5057916;28;20485;-76
2022/01/06 02:18:25;;;;;;;1.70;1.43;;;3.60;98.20;;;;;;5092584;28;20497;-75
2022/01/06 02:20:53;;;;;;;1.70;1.43;;;3.60;98.20;;;;;;5057886;28;20453;-76
2022/01/06 02:23:21;;;;;;;1.70;1.60;;;3.60;98.20;;;;;;5096458;28;20541;-75
2022/01/06 02:25:49;;;;;;;1.70;1.40;;;3.60;98.20;;;;;;5061832;28;20484;-75
2022/01/06 02:28:19;;;;;;;1.70;1.50;;;3.60;98.20;;;;;;5088720;28;20473;-76
2022/01/06 02:30:50;;;;;;;1.77;1.67;;;3.60;98.20;;;;;;5065850;28;20784;-75
2022/01/06 02:33:17;;;;;;;1.70;1.53;;;3.60;98.20;;;;;;5056864;28;20469;-75
2022/01/06 02:35:45;;;;;;;1.70;1.50;;;3.60;98.20;;;;;;5054134;28;20895;-76
2022/01/06 02:38:13;;;;;;;1.70;1.50;;;3.60;98.20;;;;;;5080680;28;20485;-75
2022/01/06 02:40:40;;;;;;;1.70;1.53;;;3.70;98.20;;;;;;5065052;28;20995;-75
2022/01/06 02:43:07;;;;;;;1.70;1.40;;;3.70;98.20;;;;;;5085809;28;20480;-75
2022/01/06 02:45:36;;;;;;;1.60;1.40;;;3.70;98.20;;;;;;5064528;28;21004;-75
2022/01/06 02:48:08;;;;;;;1.60;1.30;;;3.60;98.20;;;;;;5081889;28;20518;-75
2022/01/06 02:50:37;;;;;;;1.70;1.50;;;3.60;98.20;;;;;;5065870;28;20469;-75
2022/01/06 02:53:05;;;;;;;1.70;1.53;;;3.60;98.20;;;;;;5085803;28;20529;-76
2022/01/06 02:55:33;;;;;;;1.70;1.50;;;3.60;98.20;;;;;;5065005;28;20493;-75
2022/01/06 02:58:00;;;;;;;1.70;1.40;;;3.60;98.20;;;;;;5086784;28;20490;-75
2022/01/06 03:00:27;;;;;;;1.70;1.40;;;3.50;98.20;;;;;;5067551;28;20508;-75
2022/01/06 03:02:57;;;;;;;1.70;1.47;;;3.60;98.20;;;;;;5090034;28;20870;-75
2022/01/06 03:05:24;;;;;;;1.70;1.50;;;3.60;98.20;;;;;;5069347;28;20855;-75
2022/01/06 03:07:51;;;;;;;1.70;1.50;;;3.60;98.20;;;;;;5090273;28;20476;-75
2022/01/06 03:10:18;;;;;;;1.70;1.60;;;3.60;98.20;;;;;;5069466;28;20453;-75
2022/01/06 03:12:48;;;;;;;1.70;1.60;;;3.60;98.20;;;;;;5087314;28;20684;-75
2022/01/06 03:15:20;;;;;;;1.63;1.40;;;3.70;98.20;;;;;;5068979;28;20555;-75
2022/01/06 03:17:52;;;;;;;1.60;1.40;;;3.70;98.20;;;;;;5090506;28;20922;-75
2022/01/06 03:20:21;;;;;;;1.80;1.70;;;3.70;98.20;;;;;;5069169;28;20461;-78
2022/01/06 03:22:51;;;;;;;1.70;1.40;;;3.70;98.20;;;;;;5088476;28;20518;-76
2022/01/06 03:25:18;;;;;;;1.70;1.50;;;3.70;98.20;;;;;;5068633;28;20484;-75
2022/01/06 03:27:47;;;;;;;1.70;1.40;;;3.70;98.20;;;;;;5089453;28;20566;-75
2022/01/06 03:30:16;;;;;;;1.70;1.50;;;3.70;98.20;;;;;;5068671;28;20830;-76
2022/01/06 03:32:47;;;;;;;1.67;1.33;;;3.70;98.20;;;;;;5088698;28;20998;-75
2022/01/06 03:35:15;;;;;;;1.70;1.50;;;3.60;98.20;;;;;;5068844;28;20484;-75
2022/01/06 03:37:42;;;;;;;1.70;1.50;;;3.60;98.20;;;;;;5087886;28;20486;-76
2022/01/06 03:40:11;;;;;;;1.70;1.60;;;3.60;98.20;;;;;;5070050;28;20470;-75
2022/01/06 03:42:42;;;;;;;1.67;1.40;;;3.60;98.20;;;;;;5086655;28;20514;-75
2022/01/06 03:45:12;;;;;;;1.70;1.40;;;3.60;98.20;;;;;;5069349;28;20481;-76
2022/01/06 03:47:40;;;;;;;1.70;1.50;;;3.60;98.20;;;;;;5087764;28;20722;-75
2022/01/06 03:50:11;;;;;;;1.70;1.50;;;3.60;98.20;;;;;;5070070;28;20461;-75
2022/01/06 03:52:38;;;;;;;1.70;1.53;;;3.60;98.20;;;;;;5084879;28;20476;-75
2022/01/06 03:55:07;;;;;;;1.70;1.40;;;3.50;98.20;;;;;;5068687;28;20484;-76
2022/01/06 03:57:34;;;;;;;1.70;1.50;;;3.50;98.20;;;;;;5083945;28;20477;-75
2022/01/06 04:00:01;;;;;;;1.63;1.30;;;3.50;98.20;;;;;;5071900;28;20526;-75
2022/01/06 04:02:30;;;;;;;1.60;1.37;;;3.40;98.20;;;;;;5083657;28;20476;-75
2022/01/06 04:04:59;;;;;;;1.67;1.30;;;3.40;98.20;;;;;;5072514;28;20691;-75
2022/01/06 04:07:26;;;;;;;1.67;1.30;;;3.40;98.20;;;;;;5083209;28;20471;-75
2022/01/06 04:09:53;;;;;;;1.70;1.57;;;3.40;98.20;;;;;;5073422;28;20471;-75
2022/01/06 04:12:22;;;;;;;1.70;1.40;;;3.40;98.20;;;;;;5081985;28;20487;-75
2022/01/06 04:14:50;;;;;;;1.70;1.60;;;3.30;98.20;;;;;;5074180;28;21226;-76
2022/01/06 04:17:17;;;;;;;1.70;1.40;;;3.30;98.20;;;;;;5081426;28;20471;-75
2022/01/06 04:19:45;;;;;;;1.67;1.37;;;3.30;98.20;;;;;;5076249;28;20461;-75
2022/01/06 04:22:12;;;;;;;1.70;1.60;;;3.30;98.20;;;;;;5072480;28;21058;-78
2022/01/06 04:24:38;;;;;;;1.63;1.40;;;3.20;98.20;;;;;;5077053;28;20500;-75
2022/01/06 04:27:06;;;;;;;1.70;1.50;;;3.20;98.20;;;;;;5076887;28;20544;-75
2022/01/06 04:29:32;;;;;;;1.70;1.50;;;3.20;98.20;;;;;;5079295;28;20468;-75
2022/01/06 04:31:59;;;;;;;1.70;1.60;;;3.20;98.20;;;;;;5073167;28;20483;-75
2022/01/06 04:34:26;;;;;;;1.70;1.50;;;3.20;98.20;;;;;;5079986;28;20466;-75
2022/01/06 04:36:57;;;;;;;1.67;1.50;;;3.20;98.20;;;;;;5071994;28;20884;-75
2022/01/06 04:39:23;;;;;;;1.70;1.50;;;3.10;98.20;;;;;;5080550;28;20470;-75
2022/01/06 04:41:53;;;;;;;1.70;1.40;;;3.10;98.20;;;;;;5072991;28;20478;-75
2022/01/06 04:44:20;;;;;;;1.70;1.50;;;3.00;98.20;;;;;;5078484;28;20978;-75
2022/01/06 04:46:47;;;;;;;1.73;1.63;;;3.00;98.20;;;;;;5071608;28;20539;-74
2022/01/06 04:49:14;;;;;;;1.63;1.40;;;3.00;98.20;;;;;;5082977;28;20841;-75
2022/01/06 04:51:41;;;;;;;1.70;1.60;;;3.00;98.20;;;;;;5069701;28;21046;-74
2022/01/06 04:54:09;;;;;;;1.67;1.50;;;3.00;98.20;;;;;;5083234;28;20457;-75
2022/01/06 04:56:37;;;;;;;1.70;1.50;;;2.90;98.20;;;;;;5069250;28;21013;-74
2022/01/06 04:59:08;;;;;;;1.70;1.40;;;2.90;98.20;;;;;;5085746;28;20465;-74
2022/01/06 05:01:36;;;;;;;1.70;1.60;;;2.90;98.20;;;;;;5067960;28;20522;-74
2022/01/06 05:04:04;;;;;;;1.67;1.40;;;2.80;98.20;;;;;;5084387;28;20540;-75
2022/01/06 05:06:30;;;;;;;1.70;1.53;;;2.80;98.20;;;;;;5067596;28;20476;-76
2022/01/06 05:08:57;;;;;;;1.70;1.60;;;2.80;98.20;;;;;;5084748;28;20461;-75
2022/01/06 05:11:25;;;;;;;1.70;1.50;;;2.70;98.20;;;;;;5065037;28;20478;-75
2022/01/06 05:13:56;;;;;;;1.70;1.50;;;2.70;98.20;;;;;;5088184;28;20454;-75
2022/01/06 05:16:23;;;;;;;1.70;1.60;;;2.70;98.20;;;;;;5065468;28;20503;-75
2022/01/06 05:18:50;;;;;;;1.70;1.60;;;2.70;98.20;;;;;;5089050;28;20469;-78
2022/01/06 05:21:17;;;;;;;1.70;1.60;;;2.70;98.20;;;;;;5062543;28;20480;-78
2022/01/06 05:23:44;;;;;;;1.67;1.40;;;2.70;98.20;;;;;;5090596;28;20836;-78
2022/01/06 05:26:12;;;;;;;1.70;1.40;;;2.70;98.20;;;;;;5061485;28;20521;-77
2022/01/06 05:28:40;;;;;;;1.70;1.60;;;2.70;98.20;;;;;;5093251;28;20522;-77
2022/01/06 05:31:07;;;;;;;1.70;1.50;;;2.60;98.20;;;;;;5059465;28;20466;-77
2022/01/06 05:33:34;;;;;;;1.70;1.40;;;2.60;98.20;;;;;;5093784;28;20495;-78
2022/01/06 05:36:00;;;;;;;1.70;1.60;;;2.60;98.20;;;;;;5059142;28;20473;-77
2022/01/06 05:38:27;;;;;;;1.83;1.73;;;2.60;98.20;;;;;;5090174;28;20464;-77
2022/01/06 05:40:54;;;;;;;1.70;1.50;;;2.60;98.20;;;;;;5058231;28;20461;-78
2022/01/06 05:43:21;;;;;;;1.70;1.50;;;2.50;98.20;;;;;;5096703;28;20460;-77
2022/01/06 05:45:51;;;;;;;1.70;1.40;;;2.50;98.20;;;;;;5057143;28;20532;-76
2022/01/06 05:48:18;;;;;;;1.70;1.60;;;2.50;98.20;;;;;;5097868;28;20621;-77
2022/01/06 05:50:48;;;;;;;1.80;1.70;;;2.50;98.20;;;;;;5067959;28;20852;-78
2022/01/06 05:53:15;;;;;;;1.70;1.50;;;2.50;98.20;;;;;;5054537;28;20477;-76
2022/01/06 05:55:41;;;;;;;1.70;1.60;;;2.50;98.20;;;;;;5061335;28;20485;-76
2022/01/06 05:58:08;;;;;;;1.73;1.63;;;2.40;98.20;;;;;;5087175;28;20767;-76
2022/01/06 06:00:35;;;;;;;1.70;1.50;;;2.40;98.20;;;;;;5067226;28;20469;-76
2022/01/06 06:03:04;;;;;;;1.70;1.50;;;2.40;98.20;;;;;;5086575;28;21003;-75
2022/01/06 06:05:31;;;;;;;1.70;1.50;;;2.40;98.20;;;;;;5066837;28;20898;-76
2022/01/06 06:07:58;;;;;;;1.70;1.60;;;2.40;98.20;;;;;;5087676;28;20562;-76
2022/01/06 06:10:25;;;;;;;2.07;1.87;;;2.40;98.20;;;;;;5066557;28;20553;-76
2022/01/06 06:12:52;;;;;;;1.70;1.40;;;2.40;98.20;;;;;;5086793;28;20518;-78
2022/01/06 06:15:21;;;;;;;1.70;1.50;;;2.30;98.20;;;;;;5066503;28;20509;-78
2022/01/06 06:17:47;;;;;;;1.80;1.70;;;2.30;98.20;;;;;;5082360;28;20483;-77
2022/01/06 06:20:16;;;;;;;1.63;1.50;;;2.30;98.20;;;;;;5067031;28;20540;-77
2022/01/06 06:22:43;;;;;;;1.70;1.50;;;2.30;98.20;;;;;;5079946;28;20881;-77
2022/01/06 06:25:10;;;;;;;1.70;1.50;;;2.20;98.20;;;;;;5065223;28;20483;-80
2022/01/06 06:27:37;;;;;;;1.70;1.50;;;2.20;98.20;;;;;;5076127;28;20480;-79
2022/01/06 06:30:05;;;;;;;1.70;1.60;;;2.20;98.20;;;;;;5068776;28;20457;-80
2022/01/06 06:32:33;;;;;;;1.70;1.60;;;2.20;98.20;;;;;;5076981;28;20507;-80
2022/01/06 06:35:01;;;;;;;1.83;1.73;;;2.20;98.20;;;;;;5071440;28;20997;-80
2022/01/06 06:37:29;;;;;;;1.80;1.70;;;2.20;98.20;;;;;;5080783;28;20580;-79
2022/01/06 06:39:57;;;;;;;1.70;1.50;;;2.20;98.20;;;;;;5072142;28;20975;-77
2022/01/06 06:42:24;;;;;;;1.70;1.40;;;2.20;98.20;;;;;;5083750;28;20551;-78
2022/01/06 06:44:51;;;;;;;1.70;1.50;;;2.20;98.20;;;;;;5075174;28;20485;-77
2022/01/06 06:47:18;;;;;;;1.80;1.70;;;2.10;98.20;;;;;;5082809;28;20943;-79
2022/01/06 06:49:45;;;;;;;1.70;1.50;;;2.10;98.20;;;;;;5073845;28;20489;-80
2022/01/06 06:52:12;;;;;;;1.67;1.40;;;2.10;98.20;;;;;;5075964;28;20476;-79
2022/01/06 06:54:41;;;;;;;1.80;1.70;;;2.00;98.20;;;;;;5077763;28;20485;-80
2022/01/06 06:57:08;;;;;;;1.70;1.50;;;2.00;98.20;;;;;;5079184;28;21026;-79
2022/01/06 06:59:35;;;;;;;1.70;1.50;;;2.00;98.20;;;;;;5080227;28;20526;-80
2022/01/06 07:02:02;;;;;;;1.80;1.70;;;2.00;98.20;;;;;;5077804;28;20478;-80
2022/01/06 07:04:29;;;;;;;1.70;1.50;;;2.00;98.20;;;;;;5081619;28;20492;-81
2022/01/06 07:06:55;;;;;;;1.70;1.50;;;2.00;98.20;;;;;;5077340;28;20571;-80
2022/01/06 07:09:22;;;;;;;1.70;1.50;;;2.00;98.20;;;;;;5083570;28;20488;-78
2022/01/06 07:11:51;;;;;;;1.70;1.50;;;2.00;98.20;;;;;;5073685;28;20481;-80
2022/01/06 07:14:18;;;;;;;1.70;1.50;;;2.00;98.20;;;;;;5083567;28;20463;-77
2022/01/06 07:16:45;;;;;;;1.70;1.60;;;2.00;98.20;;;;;;5074006;28;21017;-80
2022/01/06 07:19:12;;;;;;;1.70;1.50;;;2.00;98.20;;;;;;5085190;28;20514;-77
2022/01/06 07:21:38;;;;;;;1.70;1.50;;;2.00;98.20;;;;;;5070845;28;20475;-78
2022/01/06 07:24:06;;;;;;;1.70;1.50;;;2.00;98.20;;;;;;5085685;28;20761;-78
2022/01/06 07:26:33;;;;;;;1.70;1.50;;;2.10;98.20;;;;;;5066902;28;20478;-80
2022/01/06 07:29:02;;;;;;;1.70;1.60;;;2.10;98.20;;;;;;5088826;28;20469;-79
2022/01/06 07:31:29;;;;;;;1.70;1.50;;;2.10;98.20;;;;;;5067959;28;20490;-79
2022/01/06 07:33:56;;;;;;;1.70;1.60;;;2.10;98.20;;;;;;5086936;28;20551;-86
2022/01/06 07:36:23;;;;;;;1.70;1.47;;;2.10;98.20;;;;;;5066928;28;20839;-77
2022/01/06 07:38:50;;;;;;;1.70;1.50;;;2.20;98.20;;;;;;5089561;28;20468;-77
2022/01/06 07:41:17;;;;;;;1.70;1.57;;;2.20;98.20;;;;;;5064457;28;20562;-77
2022/01/06 07:43:44;;;;;;;1.70;1.40;;;2.20;98.20;;;;;;5094093;28;20449;-77
2022/01/06 07:46:13;;;;;;;1.70;1.50;;;2.20;98.20;;;;;;5063583;28;20572;-77
2022/01/06 07:48:55;;;;;;;1.70;1.50;;;2.20;98.20;;;;;;5094663;28;20644;-77
2022/01/06 07:51:22;;;;;;;1.70;1.50;;;2.20;98.20;;;;;;5066588;28;20568;-77
2022/01/06 07:53:49;;;;;;;1.70;1.60;;;2.20;98.20;;;;;;5091239;28;21007;-78
2022/01/06 07:56:16;;;;;;;1.70;1.53;;;2.20;98.20;;;;;;5064625;28;20480;-80
2022/01/06 07:58:43;;;;;;;1.70;1.50;;;2.20;98.20;;;;;;5090931;28;20539;-81
2022/01/06 08:01:12;;;;;;;1.80;1.70;;;2.20;98.20;;;;;;5063799;28;20473;-77
2022/01/06 08:03:38;;;;;;;1.67;1.47;;;2.30;98.20;;;;;;5096063;28;20454;-78
2022/01/06 08:06:05;;;;;;;1.70;1.60;;;2.30;98.20;;;;;;5062548;28;20481;-77
2022/01/06 08:08:32;;;;;;;1.73;1.63;;;2.40;98.20;;;;;;5096513;28;20457;-78
2022/01/06 08:10:59;;;;;;;1.70;1.40;;;2.40;98.20;;;;;;5059429;28;21061;-76
2022/01/06 08:13:26;;;;;;;1.70;1.50;;;2.50;98.20;;;;;;5095108;28;20492;-79
2022/01/06 08:15:53;;;;;;;1.67;1.47;;;2.50;98.20;;;;;;5058269;28;20635;-78
2022/01/06 08:18:22;;;;;;;1.70;1.50;;;2.60;98.20;;;;;;5093555;28;20567;-75
2022/01/06 08:20:49;;;;;;;1.80;1.70;;;2.60;98.20;;;;;;5061276;28;21040;-77
2022/01/06 08:23:16;;;;;;;1.70;1.50;;;2.70;98.20;;;;;;5094206;28;20471;-75
2022/01/06 08:25:43;;;;;;;1.70;1.60;;;2.70;98.20;;;;;;5066454;28;20481;-74
2022/01/06 08:28:10;;;;;;;1.70;1.40;;;2.70;98.20;;;;;;5068243;28;21082;-74
2022/01/06 08:30:37;;;;;;;1.70;1.50;;;2.80;98.20;;;;;;5067160;28;20522;-75
2022/01/06 08:33:05;;;;;;;1.70;1.50;;;2.80;98.20;;;;;;5084716;28;20570;-77
2022/01/06 08:35:33;;;;;;;1.70;1.60;;;2.80;98.20;;;;;;5066852;28;20517;-74
2022/01/06 08:38:00;;;;;;;1.70;1.50;;;2.90;98.20;;;;;;5084163;28;20479;-78
2022/01/06 08:40:27;;;;;;;1.70;1.50;;;2.90;98.20;;;;;;5066727;28;20945;-75
2022/01/06 08:42:54;;;;;;;1.70;1.50;;;2.90;98.20;;;;;;5084687;28;20479;-76
2022/01/06 08:45:22;;;;;;;1.73;1.63;;;3.00;98.20;;;;;;5064030;28;20678;-76
2022/01/06 08:47:49;;;;;;;1.70;1.50;;;3.00;98.20;;;;;;5064427;28;20492;-78
2022/01/06 08:50:17;;;;;;;1.70;1.47;;;3.00;98.20;;;;;;5066345;28;20912;-75
2022/01/06 08:52:46;;;;;;;1.70;1.40;;;3.10;98.20;;;;;;5083101;28;20476;-76
2022/01/06 08:55:13;;;;;;;1.70;1.60;;;3.10;98.20;;;;;;5064849;28;20477;-76
2022/01/06 08:57:42;;;;;;;1.70;1.50;;;3.20;98.20;;;;;;5083124;28;20539;-75
2022/01/06 09:00:11;;;;;;;1.70;1.60;;;3.20;98.20;;;;;;5066834;28;20546;-75
2022/01/06 09:02:38;;;;;;;1.70;1.50;;;3.20;98.20;;;;;;5067204;28;20507;-80
2022/01/06 09:05:06;;;;;;;1.70;1.40;;;3.30;98.20;;;;;;5066979;28;20848;-77
2022/01/06 09:07:34;;;;;;;1.60;1.40;;;3.30;98.20;;;;;;5082392;28;20486;-77
2022/01/06 09:10:02;;;;;;;1.70;1.50;;;3.40;98.20;;;;;;5069910;28;20492;-76
2022/01/06 09:12:29;;;;;;;1.70;1.40;;;3.40;98.20;;;;;;5081302;28;20536;-75
2022/01/06 09:14:57;;;;;;;1.60;1.40;;;3.50;98.20;;;;;;5069728;28;20578;-76
2022/01/06 09:17:24;;;;;;;1.70;1.50;;;3.60;98.20;;;;;;5066351;28;20484;-77
2022/01/06 09:19:51;;;;;;;1.70;1.50;;;3.70;98.20;;;;;;5068488;28;20464;-77
2022/01/06 09:22:18;;;;;;;1.63;1.40;;;3.70;98.20;;;;;;5062659;28;20476;-77
2022/01/06 09:24:44;;;;;;;1.67;1.40;;;3.80;98.20;;;;;;5069216;28;20531;-76
2022/01/06 09:27:13;;;;;;;1.70;1.40;;;3.90;98.20;;;;;;5063952;28;20487;-81
2022/01/06 09:29:40;;;;;;;1.70;1.40;;;4.00;98.20;;;;;;5070831;28;20461;-80
2022/01/06 09:32:07;;;;;;;1.70;1.40;;;4.20;98.20;;;;;;5077700;28;20479;-78
2022/01/06 09:34:34;;;;;;;1.63;1.30;;;4.30;98.20;;;;;;5078268;28;20793;-79
2022/01/06 09:37:01;;;;;;;1.70;1.50;;;4.40;98.20;;;;;;5075364;28;20833;-77
2022/01/06 09:39:28;;;;;;;1.60;1.30;;;4.50;98.20;;;;;;5078906;28;20709;-77
2022/01/06 09:41:55;;;;;;;1.70;1.40;;;4.50;98.20;;;;;;5074058;28;20479;-76
2022/01/06 09:44:24;;;;;;;1.70;1.40;;;4.50;98.20;;;;;;5080841;28;20461;-77
2022/01/06 09:46:51;;;;;;;1.60;1.30;;;4.50;98.20;;;;;;5071983;28;20869;-77
2022/01/06 09:49:18;;;;;;;1.67;1.40;;;4.50;98.20;;;;;;5079885;28;20476;-79
2022/01/06 09:51:47;;;;;;;1.63;1.30;;;4.50;98.20;;;;;;5070375;28;21058;-77
2022/01/06 09:54:14;;;;;;;1.70;1.40;;;4.50;98.20;;;;;;5080229;28;20525;-81
2022/01/06 09:56:41;;;;;;;1.70;1.47;;;4.40;98.20;;;;;;5069854;28;20486;-79
2022/01/06 09:59:08;;;;;;;1.60;1.30;;;4.40;98.20;;;;;;5080888;28;20484;-77
2022/01/06 10:01:36;;;;;;;1.70;1.40;;;4.30;98.20;;;;;;5065600;28;20964;-78
2022/01/06 10:04:04;;;;;;;1.60;1.30;;;4.30;98.20;;;;;;5084832;28;20565;-78
2022/01/06 10:06:31;;;;;;;1.60;1.40;;;4.30;98.20;;;;;;5066573;28;20471;-79
2022/01/06 10:09:01;;;;;;;1.70;1.60;;;4.30;98.20;;;;;;5086537;28;20461;-79
2022/01/06 10:11:30;;;;;;;1.67;1.40;;;4.30;98.20;;;;;;5057518;28;20480;-79
2022/01/06 10:13:59;;;;;;;1.67;1.37;;;4.30;98.20;;;;;;5081824;28;20493;-79
2022/01/06 10:16:28;;;;;;;1.70;1.40;;;4.30;98.20;;;;;;5062504;28;20479;-77
2022/01/06 10:19:02;;;;;;;1.70;1.50;;;4.30;98.20;;;;;;5083131;28;20461;-78
2022/01/06 10:21:36;;;;;;;1.60;1.40;;;4.30;98.20;;;;;;5057289;28;20576;-79
2022/01/06 10:24:06;;;;;;;1.60;1.33;;;4.40;98.20;;;;;;5067546;28;20484;-79
2022/01/06 10:26:34;;;;;;;1.70;1.50;;;4.40;98.20;;;;;;5064472;28;20523;-79
2022/01/06 10:29:01;;;;;;;1.70;1.40;;;4.50;98.20;;;;;;5083265;28;20802;-78
2022/01/06 10:31:30;;;;;;;1.70;1.40;;;4.50;98.20;;;;;;5065277;28;20548;-79
2022/01/06 10:33:58;;;;;;;1.63;1.30;;;4.60;98.20;;;;;;5086110;28;20495;-80
2022/01/06 10:36:32;;;;;;;1.70;1.57;;;4.70;98.20;;;;;;5063767;28;20481;-76
2022/01/06 10:39:00;;;;;;;1.63;1.30;;;4.70;98.20;;;;;;5081376;28;20553;-79
2022/01/06 10:41:29;;;;;;;1.60;1.30;;;4.80;98.20;;;;;;5056880;28;20533;-75
2022/01/06 10:43:59;;;;;;;1.67;1.37;;;4.80;98.20;;;;;;5064669;28;21020;-76
2022/01/06 10:46:34;;;;;;;1.70;1.30;;;4.80;98.20;;;;;;5062280;28;20991;-80
2022/01/06 10:49:05;;;;;;;1.60;1.30;;;4.90;98.20;;;;;;5082695;28;20503;-79
2022/01/06 10:51:37;;;;;;;1.60;1.37;;;4.90;98.20;;;;;;5065060;28;20645;-79
2022/01/06 10:54:06;;;;;;;1.67;1.40;;;5.00;98.20;;;;;;5082732;28;20576;-80
2022/01/06 10:56:33;;;;;;;1.70;1.40;;;5.10;98.20;;;;;;5063777;28;20964;-79
2022/01/06 10:59:00;;;;;;;1.70;1.40;;;5.10;98.20;;;;;;5081463;28;20969;-75
2022/01/06 11:01:32;;;;;;;1.70;1.37;;;5.20;98.20;;;;;;5055519;28;20472;-75
2022/01/06 11:03:59;;;;;;;1.70;1.40;;;5.20;98.20;;;;;;5069052;28;20518;-77
2022/01/06 11:06:28;;;;;;;1.70;1.40;;;5.20;98.20;;;;;;5060367;28;20479;-78
2022/01/06 11:08:55;;;;;;;1.70;1.33;;;5.30;98.20;;;;;;5082901;28;20582;-78
2022/01/06 11:14:14;;;;;;;1.60;1.30;;;5.40;98.20;;;;;;5076729;28;20574;-76
2022/01/06 11:16:42;;;;;;;1.70;1.50;;;5.40;98.20;;;;;;5057619;28;21049;-75
2022/01/06 11:19:11;;;;;;;1.60;1.20;;;5.50;98.20;;;;;;5069009;28;20819;-76
2022/01/06 11:21:44;;;;;;;1.60;1.30;;;5.50;98.20;;;;;;5067347;28;20476;-75
2022/01/06 11:24:13;;;;;;;1.70;1.40;;;5.60;98.20;;;;;;5079818;28;20476;-74
2022/01/06 11:26:41;;;;;;;1.70;1.30;;;5.70;98.20;;;;;;5068630;28;20483;-78
2022/01/06 11:29:09;;;;;;;1.67;1.30;;;5.80;98.20;;;;;;5082427;28;20462;-76
2022/01/06 11:31:38;;;;;;;1.70;1.40;;;5.80;98.20;;;;;;5067110;28;20485;-81
2022/01/06 11:34:14;;;;;;;1.63;1.30;;;5.90;98.20;;;;;;5079488;28;20936;-76
2022/01/06 11:36:46;;;;;;;1.70;1.30;;;6.00;98.20;;;;;;5069419;28;20521;-79
2022/01/06 11:39:26;;;;;;;1.60;1.20;;;6.10;98.20;;;;;;5082986;28;20552;-78
2022/01/06 11:42:15;;;;;;;1.70;1.30;;;6.20;98.20;;;;;;5075237;28;20485;-78
2022/01/06 11:44:51;;;;;;;1.60;1.30;;;6.20;98.20;;;;;;5070927;28;20477;-79
2022/01/06 11:47:30;;;;;;;1.63;1.30;;;6.30;98.20;;;;;;5078321;28;20570;-82
2022/01/06 11:50:11;;;;;;;1.63;1.30;;;6.30;98.20;;;;;;5069818;28;20515;-76
2022/01/06 11:52:50;;;;;;;1.70;1.40;;;6.30;98.20;;;;;;5081696;28;20911;-76
2022/01/06 11:55:17;;;;;;;1.70;1.40;;;6.40;98.20;;;;;;5064683;28;20493;-77
2022/01/06 11:57:44;;;;;;;1.70;1.30;;;6.40;98.20;;;;;;5065630;28;20480;-79
2022/01/06 12:00:17;;;;;;;1.60;1.20;;;6.40;98.20;;;;;;5061569;28;20513;-77
2022/01/06 12:02:45;;;;;;;1.67;1.30;;;6.40;98.20;;;;;;5082809;28;20482;-77
2022/01/06 12:05:13;;;;;;;1.70;1.30;;;6.50;98.20;;;;;;5064753;28;21090;-80
2022/01/06 12:07:51;;;;;;;1.70;1.30;;;6.50;98.20;;;;;;5082143;28;20541;-82
2022/01/06 12:10:20;;;;;;;1.70;1.43;;;6.60;98.20;;;;;;5066906;28;20469;-77
2022/01/06 12:12:49;;;;;;;1.60;1.30;;;6.60;98.20;;;;;;5086313;28;20524;-77
2022/01/06 12:15:18;;;;;;;1.70;1.30;;;6.70;98.20;;;;;;5064577;28;20576;-78
2022/01/06 12:17:47;;;;;;;1.67;1.30;;;6.70;98.20;;;;;;5064230;28;20592;-79
2022/01/06 12:20:20;;;;;;;1.60;1.30;;;6.80;98.20;;;;;;5065864;28;20744;-80
2022/01/06 12:22:47;;;;;;;1.70;1.40;;;6.80;98.20;;;;;;5061261;28;20476;-79
2022/01/06 12:25:16;;;;;;;1.70;1.30;;;6.90;98.20;;;;;;5064069;28;20548;-81
2022/01/06 12:27:48;;;;;;;1.60;1.20;;;6.90;98.20;;;;;;5084887;28;20487;-78
2022/01/06 12:30:17;;;;;;;1.70;1.40;;;6.90;98.20;;;;;;5065982;28;20475;-77
2022/01/06 12:32:56;;;;;;;1.63;1.27;;;7.00;98.20;;;;;;5078662;28;20482;-77
2022/01/06 12:35:48;;;;;;;1.70;1.30;;;7.00;98.20;;;;;;5066328;28;20906;-79
2022/01/06 12:38:18;;;;;;;1.60;1.20;;;6.90;98.20;;;;;;5050708;28;20478;-81
2022/01/06 12:40:46;;;;;;;1.67;1.30;;;6.90;98.20;;;;;;5061362;28;20527;-78
2022/01/06 12:43:19;;;;;;;1.70;1.30;;;6.80;98.20;;;;;;5049890;28;20482;-78
2022/01/06 12:45:46;;;;;;;1.60;1.30;;;6.70;98.20;;;;;;5059262;28;20500;-77
2022/01/06 12:48:14;;;;;;;1.67;1.30;;;6.60;98.20;;;;;;5050163;28;20987;-83
2022/01/06 12:50:46;;;;;;;1.60;1.20;;;6.50;98.20;;;;;;5062040;28;20523;-84
2022/01/06 12:53:24;;;;;;;1.70;1.30;;;6.50;98.20;;;;;;5049750;28;20473;-80
2022/01/06 12:55:53;;;;;;;1.70;1.40;;;6.50;98.20;;;;;;5047274;28;20631;-80
2022/01/06 12:58:39;;;;;;;1.70;1.30;;;6.50;98.20;;;;;;5089422;28;20555;-77
2022/01/06 13:01:10;;;;;;;1.70;1.40;;;6.50;98.20;;;;;;5054363;28;20457;-79
2022/01/06 13:03:39;;;;;;;1.70;1.40;;;6.50;98.20;;;;;;5084946;28;20489;-76
2022/01/06 13:06:08;;;;;;;1.70;1.40;;;6.50;98.20;;;;;;5056800;28;20875;-76
2022/01/06 13:08:45;;;;;;;1.63;1.20;;;6.50;98.20;;;;;;5089399;28;20465;-78
2022/01/06 13:11:13;;;;;;;1.70;1.30;;;6.40;98.20;;;;;;5057537;28;20478;-77
2022/01/06 13:13:49;;;;;;;1.60;1.30;;;6.40;98.20;;;;;;5087116;28;20523;-77